createdAt,value
2019-06-26T00:01:50.238Z,29.80
2019-06-26T00:04:19.424Z,30.90
2019-06-26T00:06:48.618Z,30.50
2019-06-26T00:09:17.747Z,26.03
2019-06-26T00:11:46.945Z,27.57
2019-06-26T00:14:16.106Z,27.73
2019-06-26T00:16:45.176Z,27.00
2019-06-26T00:19:14.270Z,27.47
2019-06-26T00:21:43.438Z,27.37
2019-06-26T00:24:12.474Z,27.73
2019-06-26T00:26:41.597Z,28.13
2019-06-26T00:29:10.720Z,27.13
2019-06-26T00:31:39.839Z,27.37
2019-06-26T00:34:08.948Z,31.13
2019-06-26T00:36:38.145Z,31.23
2019-06-26T00:39:07.533Z,29.90
2019-06-26T00:41:36.662Z,28.70
2019-06-26T00:44:05.990Z,29.87
2019-06-26T00:46:35.092Z,29.97
2019-06-26T00:49:04.639Z,33.50
2019-06-26T00:51:34.300Z,29.43
2019-06-26T00:54:03.456Z,31.23
2019-06-26T00:56:32.622Z,30.80
2019-06-26T00:59:03.011Z,29.53
2019-06-26T01:01:32.139Z,26.97
2019-06-26T01:04:05.433Z,30.17
2019-06-26T01:06:43.726Z,29.60
2019-06-26T01:09:14.765Z,29.13
2019-06-26T01:11:44.743Z,25.90
2019-06-26T01:14:13.956Z,25.47
2019-06-26T01:16:43.121Z,26.20
2019-06-26T01:19:12.235Z,25.60
2019-06-26T01:21:41.357Z,24.87
2019-06-26T01:24:11.381Z,22.50
2019-06-26T01:26:40.517Z,23.67
2019-06-26T01:29:09.691Z,21.20
2019-06-26T01:31:38.761Z,20.57
2019-06-26T01:34:07.854Z,21.00
2019-06-26T01:36:36.966Z,18.10
2019-06-26T01:39:07.099Z,21.50
2019-06-26T01:41:37.021Z,21.93
2019-06-26T01:44:14.853Z,21.10
2019-06-26T01:46:37.187Z,21.73
2019-06-26T01:49:06.490Z,23.13
2019-06-26T01:51:35.618Z,20.67
2019-06-26T01:54:04.815Z,20.97
2019-06-26T01:56:33.916Z,22.63
2019-06-26T01:59:03.097Z,23.07
2019-06-26T02:01:32.299Z,23.23
2019-06-26T02:04:02.183Z,21.07
2019-06-26T02:06:31.348Z,22.50
2019-06-26T02:09:00.468Z,24.27
2019-06-26T02:11:29.584Z,22.73
2019-06-26T02:13:58.731Z,23.13
2019-06-26T02:16:27.828Z,22.73
2019-06-26T02:19:00.477Z,23.00
2019-06-26T02:21:30.186Z,22.87
2019-06-26T02:23:59.304Z,22.97
2019-06-26T02:26:28.415Z,21.97
2019-06-26T02:28:58.758Z,23.87
2019-06-26T02:31:27.882Z,23.83
2019-06-26T02:33:57.080Z,22.57
2019-06-26T02:36:26.294Z,23.50
2019-06-26T02:38:55.489Z,21.70
2019-06-26T02:41:24.671Z,20.87
2019-06-26T02:43:53.809Z,21.30
2019-06-26T02:46:23.724Z,21.43
2019-06-26T02:48:52.989Z,20.50
2019-06-26T02:51:22.131Z,19.20
2019-06-26T02:53:51.245Z,19.10
2019-06-26T02:56:20.362Z,18.80
2019-06-26T02:58:49.504Z,18.33
2019-06-26T03:01:18.628Z,18.57
2019-06-26T03:03:47.761Z,18.23
2019-06-26T03:06:16.946Z,18.23
2019-06-26T03:08:46.118Z,17.37
2019-06-26T03:11:15.334Z,16.70
2019-06-26T03:13:44.483Z,17.97
2019-06-26T03:16:13.679Z,16.97
2019-06-26T03:18:42.914Z,17.40
2019-06-26T03:21:12.147Z,15.53
2019-06-26T03:23:41.248Z,14.87
2019-06-26T03:26:10.423Z,17.60
2019-06-26T03:28:39.591Z,18.87
2019-06-26T03:31:08.793Z,19.43
2019-06-26T03:33:37.982Z,20.83
2019-06-26T03:36:07.140Z,18.27
2019-06-26T03:38:36.305Z,16.37
2019-06-26T03:41:05.491Z,17.17
2019-06-26T03:43:35.753Z,18.30
2019-06-26T03:46:05.059Z,18.17
2019-06-26T03:48:34.250Z,18.73
2019-06-26T03:51:03.474Z,19.63
2019-06-26T03:53:32.584Z,19.47
2019-06-26T03:56:02.114Z,18.90
2019-06-26T03:58:31.382Z,18.57
2019-06-26T04:01:01.107Z,17.57
2019-06-26T04:03:30.309Z,17.90
2019-06-26T04:06:00.112Z,17.47
2019-06-26T04:08:29.451Z,18.20
2019-06-26T04:10:58.761Z,18.10
2019-06-26T04:13:27.913Z,17.23
2019-06-26T04:15:57.062Z,16.33
2019-06-26T04:18:26.152Z,18.47
2019-06-26T04:20:55.271Z,17.50
2019-06-26T04:23:24.434Z,18.43
2019-06-26T04:25:53.528Z,19.93
2019-06-26T04:28:25.054Z,18.73
2019-06-26T04:30:54.212Z,18.53
2019-06-26T04:33:23.320Z,18.87
2019-06-26T04:35:52.514Z,18.70
2019-06-26T04:38:21.700Z,16.37
2019-06-26T04:40:50.795Z,18.50
2019-06-26T04:43:20.653Z,17.97
2019-06-26T04:45:58.212Z,18.60
2019-06-26T04:48:20.616Z,18.90
2019-06-26T04:50:49.769Z,18.60
2019-06-26T04:53:19.044Z,17.07
2019-06-26T04:55:48.541Z,17.33
2019-06-26T04:58:17.672Z,17.20
2019-06-26T05:00:46.858Z,17.63
2019-06-26T05:03:16.120Z,16.67
2019-06-26T05:05:45.292Z,18.43
2019-06-26T05:08:14.538Z,19.53
2019-06-26T05:10:43.717Z,19.67
2019-06-26T05:13:12.901Z,18.40
2019-06-26T05:15:42.212Z,17.80
2019-06-26T05:18:11.445Z,20.07
2019-06-26T05:20:40.648Z,20.23
2019-06-26T05:23:09.822Z,19.90
2019-06-26T05:25:39.025Z,20.03
2019-06-26T05:28:08.610Z,23.07
2019-06-26T05:30:38.578Z,19.20
2019-06-26T05:33:07.718Z,20.13
2019-06-26T05:35:36.989Z,19.23
2019-06-26T05:38:06.207Z,18.23
2019-06-26T05:40:35.395Z,20.47
2019-06-26T05:43:04.638Z,20.10
2019-06-26T05:45:33.868Z,20.93
2019-06-26T05:48:03.147Z,19.77
2019-06-26T05:50:33.108Z,18.93
2019-06-26T05:53:02.352Z,19.37
2019-06-26T05:55:31.696Z,19.07
2019-06-26T05:58:00.975Z,19.80
2019-06-26T06:00:30.123Z,19.13
2019-06-26T06:02:59.256Z,21.43
2019-06-26T06:05:29.334Z,20.17
2019-06-26T06:07:58.572Z,21.13
2019-06-26T06:10:27.663Z,20.10
2019-06-26T06:12:59.875Z,21.63
2019-06-26T06:15:29.419Z,20.03
2019-06-26T06:17:58.658Z,22.23
2019-06-26T06:20:39.591Z,20.80
2019-06-26T06:23:08.780Z,20.33
2019-06-26T06:25:37.900Z,22.17
2019-06-26T06:28:08.123Z,24.53
2019-06-26T06:30:38.310Z,23.53
2019-06-26T06:33:07.438Z,20.40
2019-06-26T06:35:36.702Z,20.87
2019-06-26T06:38:05.854Z,20.00
2019-06-26T06:40:35.119Z,21.80
2019-06-26T06:43:04.266Z,21.07
2019-06-26T06:45:33.547Z,19.93
2019-06-26T06:48:04.014Z,20.40
2019-06-26T06:50:33.211Z,18.80
2019-06-26T06:53:03.833Z,21.63
2019-06-26T06:55:34.052Z,18.23
2019-06-26T06:58:04.743Z,19.10
2019-06-26T07:00:36.611Z,19.03
2019-06-26T07:03:08.265Z,18.93
2019-06-26T07:05:38.052Z,16.87
2019-06-26T07:08:07.441Z,16.20
2019-06-26T07:10:36.711Z,16.33
2019-06-26T07:13:09.741Z,15.53
2019-06-26T07:15:38.986Z,14.13
2019-06-26T07:18:08.943Z,14.20
2019-06-26T07:20:38.277Z,13.07
2019-06-26T07:23:07.569Z,14.13
2019-06-26T07:25:36.791Z,12.93
2019-06-26T07:28:07.679Z,14.17
2019-06-26T07:30:36.902Z,12.83
2019-06-26T07:33:06.214Z,12.73
2019-06-26T07:35:35.482Z,13.00
2019-06-26T07:38:04.728Z,13.53
2019-06-26T07:40:36.327Z,11.83
2019-06-26T07:43:16.545Z,13.13
2019-06-26T07:46:35.885Z,12.33
2019-06-26T07:49:29.898Z,10.40
2019-06-26T07:52:38.693Z,11.33
2019-06-26T07:56:20.952Z,9.83
2019-06-26T07:58:30.047Z,9.73
2019-06-26T08:01:10.996Z,9.80
2019-06-26T08:04:09.103Z,8.93
2019-06-26T08:06:42.350Z,9.50
2019-06-26T08:09:13.864Z,9.40
2019-06-26T08:12:59.618Z,10.70
2019-06-26T08:16:11.688Z,9.53
2019-06-26T08:18:58.981Z,9.00
2019-06-26T08:22:07.766Z,8.87
2019-06-26T08:24:46.488Z,8.80
2019-06-26T08:27:41.995Z,9.00
2019-06-26T08:30:23.908Z,8.63
2019-06-26T08:33:04.287Z,8.80
2019-06-26T08:35:58.681Z,8.80
2019-06-26T08:38:38.546Z,7.80
2019-06-26T08:41:18.937Z,8.53
2019-06-26T08:44:12.197Z,8.87
2019-06-26T08:46:52.437Z,9.47
2019-06-26T08:49:27.877Z,9.10
2019-06-26T08:51:57.605Z,8.50
2019-06-26T08:54:40.435Z,7.73
2019-06-26T08:57:14.539Z,8.10
2019-06-26T09:00:25.170Z,8.60
2019-06-26T09:03:03.649Z,8.20
2019-06-26T09:05:48.345Z,8.50
2019-06-26T09:08:28.771Z,10.00
2019-06-26T09:11:22.563Z,9.60
2019-06-26T09:14:31.943Z,9.43
2019-06-26T09:17:44.539Z,10.40
2019-06-26T09:23:31.353Z,10.83
2019-06-26T09:26:07.365Z,9.90
2019-06-26T09:28:57.861Z,10.20
2019-06-26T09:31:55.292Z,9.57
2019-06-26T09:35:45.475Z,11.37
2019-06-26T09:38:26.935Z,11.03
2019-06-26T09:41:12.232Z,11.37
2019-06-26T09:47:38.298Z,10.67
2019-06-26T09:50:35.446Z,10.30
2019-06-26T09:53:13.828Z,11.23
2019-06-26T09:56:07.722Z,12.57
2019-06-26T09:59:00.267Z,11.87
2019-06-26T10:02:21.321Z,11.73
2019-06-26T10:06:12.907Z,11.60
2019-06-26T10:11:38.291Z,12.70
2019-06-26T10:15:25.369Z,10.53
2019-06-26T10:18:09.634Z,12.53
2019-06-26T10:20:42.826Z,11.23
2019-06-26T10:23:18.066Z,11.23
2019-06-26T10:25:48.655Z,12.13
2019-06-26T10:28:17.832Z,11.70
2019-06-26T10:30:47.084Z,10.83
2019-06-26T10:33:16.980Z,10.90
2019-06-26T10:35:46.156Z,11.23
2019-06-26T10:38:15.343Z,11.37
2019-06-26T10:40:44.589Z,10.27
2019-06-26T10:43:13.765Z,11.03
2019-06-26T10:45:43.247Z,9.73
2019-06-26T10:48:18.057Z,9.40
2019-06-26T10:50:51.967Z,9.40
2019-06-26T10:53:18.385Z,9.20
2019-06-26T10:55:55.229Z,8.93
2019-06-26T11:05:08.913Z,7.53
2019-06-26T11:07:38.561Z,9.03
2019-06-26T11:10:11.648Z,7.53
2019-06-26T11:12:49.081Z,8.43
2019-06-26T11:15:18.084Z,8.40
2019-06-26T11:17:47.328Z,8.53
2019-06-26T11:20:18.082Z,8.93
2019-06-26T11:22:51.457Z,8.27
2019-06-26T11:25:26.429Z,7.93
2019-06-26T11:27:57.517Z,8.43
2019-06-26T11:30:30.171Z,8.17
2019-06-26T11:32:59.440Z,8.67
2019-06-26T11:35:28.643Z,7.03
2019-06-26T11:37:57.826Z,8.17
2019-06-26T11:40:27.097Z,8.30
2019-06-26T11:42:56.349Z,8.23
2019-06-26T11:45:25.560Z,8.20
2019-06-26T11:47:54.795Z,7.77
2019-06-26T11:50:24.093Z,7.23
2019-06-26T11:52:55.176Z,7.47
2019-06-26T11:55:24.433Z,8.33
2019-06-26T11:57:53.596Z,7.40
2019-06-26T12:00:24.562Z,8.03
2019-06-26T12:02:54.038Z,8.10
2019-06-26T12:05:25.511Z,8.37
2019-06-26T12:07:54.818Z,9.93
2019-06-26T12:10:24.074Z,9.67
2019-06-26T12:12:54.319Z,8.13
2019-06-26T12:15:23.843Z,9.00
2019-06-26T12:17:53.124Z,8.73
2019-06-26T12:20:23.491Z,9.20
2019-06-26T12:22:52.715Z,11.40
2019-06-26T12:25:22.050Z,10.70
2019-06-26T12:27:56.571Z,14.33
2019-06-26T12:30:28.681Z,13.83
2019-06-26T12:33:03.315Z,14.33
2019-06-26T12:35:37.559Z,14.07
2019-06-26T12:38:09.828Z,12.33
2019-06-26T12:40:43.466Z,11.77
2019-06-26T12:43:20.266Z,10.83
2019-06-26T12:45:49.634Z,10.80
2019-06-26T12:48:26.501Z,10.00
2019-06-26T12:50:57.055Z,9.23
2019-06-26T12:53:32.712Z,9.13
2019-06-26T12:56:13.164Z,8.47
2019-06-26T12:58:59.811Z,8.10
2019-06-26T13:01:45.341Z,8.50
2019-06-26T13:04:17.225Z,7.67
2019-06-26T13:06:49.289Z,7.03
2019-06-26T13:09:18.426Z,6.80
2019-06-26T13:11:56.307Z,6.40
2019-06-26T13:14:25.984Z,6.20
2019-06-26T13:16:59.998Z,6.67
2019-06-26T13:19:26.987Z,6.10
2019-06-26T13:21:59.238Z,7.17
2019-06-26T13:24:31.774Z,6.55
2019-06-26T13:27:02.438Z,6.67
2019-06-26T13:29:34.099Z,6.33
2019-06-26T13:32:07.488Z,5.45
2019-06-26T13:34:38.087Z,6.12
2019-06-26T13:37:10.600Z,5.37
2019-06-26T13:39:42.613Z,5.33
2019-06-26T13:42:15.509Z,5.20
2019-06-26T13:44:45.002Z,5.22
2019-06-26T13:47:31.358Z,4.33
2019-06-26T13:50:05.757Z,4.70
2019-06-26T13:52:41.664Z,4.50
2019-06-26T13:55:11.550Z,4.28
2019-06-26T13:57:47.733Z,4.60
2019-06-26T14:00:22.561Z,5.72
2019-06-26T14:02:54.523Z,5.10
2019-06-26T14:05:23.958Z,5.03
2019-06-26T14:07:57.557Z,5.35
2019-06-26T14:10:29.420Z,4.10
2019-06-26T14:13:04.857Z,5.47
2019-06-26T14:15:41.340Z,4.50
2019-06-26T14:18:10.913Z,5.35
2019-06-26T14:20:43.295Z,4.90
2019-06-26T14:23:15.498Z,4.35
2019-06-26T14:25:46.962Z,4.78
2019-06-26T14:28:19.512Z,4.55
2019-06-26T14:30:47.593Z,4.70
2019-06-26T14:33:19.416Z,4.67
2019-06-26T14:35:53.560Z,4.78
2019-06-26T14:38:22.946Z,4.85
2019-06-26T14:40:57.000Z,4.42
2019-06-26T14:43:26.469Z,4.95
2019-06-26T14:45:56.838Z,4.85
2019-06-26T14:48:28.963Z,4.17
2019-06-26T14:51:08.414Z,3.80
2019-06-26T14:53:38.567Z,4.17
2019-06-26T14:56:07.774Z,4.40
2019-06-26T14:58:36.949Z,4.42
2019-06-26T15:01:06.146Z,4.25
2019-06-26T15:03:35.617Z,4.50
2019-06-26T15:06:16.057Z,4.10
2019-06-26T15:08:37.922Z,4.30
2019-06-26T15:11:08.166Z,4.72
2019-06-26T15:13:38.579Z,4.78
2019-06-26T15:16:08.065Z,4.28
2019-06-26T15:18:37.315Z,3.70
2019-06-26T15:21:07.739Z,3.85
2019-06-26T15:23:39.864Z,4.35
2019-06-26T15:26:11.265Z,4.33
2019-06-26T15:28:40.449Z,4.25
2019-06-26T15:31:09.638Z,3.83
2019-06-26T15:33:41.161Z,3.42
2019-06-26T15:36:10.412Z,3.87
2019-06-26T15:38:43.404Z,3.50
2019-06-26T15:41:25.357Z,3.90
2019-06-26T15:43:50.509Z,3.67
2019-06-26T15:46:19.828Z,3.60
2019-06-26T15:49:51.258Z,4.12
2019-06-26T15:51:37.449Z,3.90
2019-06-26T15:54:09.232Z,3.72
2019-06-26T15:56:38.564Z,3.52
2019-06-26T16:03:19.814Z,3.10
2019-06-26T16:05:46.276Z,2.90
2019-06-26T16:08:20.915Z,3.83
2019-06-26T16:10:50.064Z,2.90
2019-06-26T16:13:19.409Z,3.25
2019-06-26T16:15:48.766Z,3.77
2019-06-26T16:18:26.588Z,4.22
2019-06-26T16:20:55.820Z,4.80
2019-06-26T16:23:24.996Z,6.97
2019-06-26T16:25:54.144Z,4.78
2019-06-26T16:28:23.264Z,5.58
2019-06-26T16:30:52.440Z,3.58
2019-06-26T16:33:21.579Z,2.98
2019-06-26T16:35:50.870Z,2.92
2019-06-26T16:38:22.546Z,3.45
2019-06-26T16:40:51.878Z,3.20
2019-06-26T16:43:21.124Z,3.30
2019-06-26T16:45:53.275Z,4.20
2019-06-26T16:48:23.360Z,3.58
2019-06-26T16:50:52.563Z,4.58
2019-06-26T16:53:21.873Z,3.70
2019-06-26T16:55:51.095Z,3.37
2019-06-26T16:58:20.258Z,3.50
2019-06-26T17:00:49.664Z,3.83
2019-06-26T17:03:30.607Z,3.77
2019-06-26T17:05:59.845Z,3.92
2019-06-26T17:08:37.642Z,3.75
2019-06-26T17:11:09.897Z,4.60
2019-06-26T17:13:39.121Z,4.12
2019-06-26T17:16:08.329Z,4.12
2019-06-26T17:18:37.575Z,3.40
2019-06-26T17:21:06.833Z,3.52
2019-06-26T17:23:36.080Z,3.25
2019-06-26T17:26:05.659Z,3.50
2019-06-26T17:28:34.843Z,3.47
2019-06-26T17:31:04.036Z,3.65
2019-06-26T17:33:36.673Z,3.30
2019-06-26T17:36:05.683Z,3.73
2019-06-26T17:38:34.911Z,3.73
2019-06-26T17:41:04.094Z,3.70
2019-06-26T17:43:33.667Z,3.90
2019-06-26T17:46:03.374Z,3.90
2019-06-26T17:48:32.529Z,3.67
2019-06-26T17:51:01.729Z,3.57
2019-06-26T17:53:30.867Z,3.60
2019-06-26T17:55:59.966Z,3.57
2019-06-26T17:58:29.159Z,4.03
2019-06-26T18:00:59.596Z,3.90
2019-06-26T18:03:28.845Z,3.20
2019-06-26T18:05:57.983Z,3.83
2019-06-26T18:08:29.444Z,3.37
2019-06-26T18:10:58.550Z,3.10
2019-06-26T18:13:28.755Z,3.80
2019-06-26T18:15:58.002Z,3.87
2019-06-26T18:18:29.308Z,3.90
2019-06-26T18:20:58.481Z,3.77
2019-06-26T18:23:37.234Z,3.23
2019-06-26T18:26:12.403Z,3.67
2019-06-26T18:28:29.445Z,3.87
2019-06-26T18:31:01.476Z,3.63
2019-06-26T18:33:31.719Z,3.50
2019-06-26T18:36:04.782Z,4.33
2019-06-26T18:38:35.047Z,3.63
2019-06-26T18:41:13.779Z,4.27
2019-06-26T18:44:04.288Z,3.33
2019-06-26T18:46:33.526Z,3.77
2019-06-26T18:49:03.135Z,3.60
2019-06-26T18:51:32.387Z,3.30
2019-06-26T18:54:02.471Z,3.27
2019-06-26T18:56:31.706Z,3.13
2019-06-26T18:59:03.179Z,3.83
2019-06-26T19:01:32.640Z,4.10
2019-06-26T19:04:02.101Z,3.10
2019-06-26T19:06:31.877Z,3.30
2019-06-26T19:09:01.408Z,3.73
2019-06-26T19:11:31.546Z,3.00
2019-06-26T19:14:02.824Z,3.57
2019-06-26T19:16:36.054Z,3.60
2019-06-26T19:19:03.490Z,3.13
2019-06-26T19:21:32.804Z,3.10
2019-06-26T19:24:10.009Z,3.57
2019-06-26T19:26:33.763Z,3.53
2019-06-26T19:29:06.065Z,3.10
2019-06-26T19:31:36.397Z,4.33
2019-06-26T19:34:05.599Z,3.20
2019-06-26T19:36:49.098Z,3.50
2019-06-26T19:39:07.656Z,3.37
2019-06-26T19:41:38.353Z,2.93
2019-06-26T19:44:08.966Z,3.20
2019-06-26T19:46:41.012Z,3.10
2019-06-26T19:49:10.149Z,2.97
2019-06-26T19:51:39.267Z,3.00
2019-06-26T19:54:08.426Z,3.47
2019-06-26T19:56:37.697Z,2.93
2019-06-26T19:59:06.962Z,2.80
2019-06-26T20:01:36.215Z,2.50
2019-06-26T20:04:05.372Z,3.00
2019-06-26T20:06:35.724Z,3.20
2019-06-26T20:09:07.801Z,2.43
2019-06-26T20:11:58.238Z,2.63
2019-06-26T20:14:36.573Z,2.43
2019-06-26T20:17:05.785Z,2.53
2019-06-26T20:19:34.911Z,2.73
2019-06-26T20:22:04.122Z,3.70
2019-06-26T20:24:44.028Z,3.03
2019-06-26T20:27:20.500Z,2.60
2019-06-26T20:29:54.951Z,3.03
2019-06-26T20:32:24.376Z,2.50
2019-06-26T20:34:56.200Z,2.50
2019-06-26T20:37:28.638Z,3.07
2019-06-26T20:39:59.364Z,2.17
2019-06-26T20:42:41.691Z,3.00
2019-06-26T20:45:58.729Z,2.90
2019-06-26T20:48:25.096Z,2.87
2019-06-26T20:50:57.387Z,2.17
2019-06-26T20:53:27.987Z,2.57
2019-06-26T20:55:58.165Z,2.70
2019-06-26T20:58:27.416Z,2.90
2019-06-26T21:00:56.537Z,2.60
2019-06-26T21:03:25.699Z,2.87
2019-06-26T21:05:54.955Z,2.53
2019-06-26T21:08:24.860Z,3.00
2019-06-26T21:10:54.023Z,2.70
2019-06-26T21:13:23.337Z,2.90
2019-06-26T21:15:53.106Z,2.80
2019-06-26T21:18:22.741Z,2.63
2019-06-26T21:20:51.881Z,2.90
2019-06-26T21:23:23.279Z,3.10
2019-06-26T21:25:51.882Z,3.27
2019-06-26T21:28:21.030Z,2.80
2019-06-26T21:30:50.184Z,2.63
2019-06-26T21:33:19.396Z,3.50
2019-06-26T21:35:48.572Z,3.10
2019-06-26T21:38:17.774Z,3.30
2019-06-26T21:40:47.008Z,3.13
2019-06-26T21:43:16.242Z,2.80
2019-06-26T21:45:45.430Z,2.83
2019-06-26T21:48:14.555Z,3.00
2019-06-26T21:50:43.997Z,2.70
2019-06-26T21:53:13.147Z,2.93
2019-06-26T21:55:42.306Z,3.43
2019-06-26T21:58:11.516Z,2.60
2019-06-26T22:00:42.390Z,2.90
2019-06-26T22:03:12.828Z,2.77
2019-06-26T22:05:42.002Z,2.97
2019-06-26T22:08:11.193Z,3.50
2019-06-26T22:10:40.317Z,2.90
2019-06-26T22:13:10.311Z,3.20
2019-06-26T22:15:39.467Z,2.67
2019-06-26T22:18:08.684Z,2.50
2019-06-26T22:20:37.950Z,3.33
2019-06-26T22:23:07.176Z,3.20
2019-06-26T22:25:49.990Z,2.80
2019-06-26T22:28:08.102Z,3.43
2019-06-26T22:30:37.455Z,3.23
2019-06-26T22:33:06.695Z,2.50
2019-06-26T22:35:35.842Z,3.43
2019-06-26T22:38:04.976Z,3.30
2019-06-26T22:40:34.101Z,2.73
2019-06-26T22:43:03.399Z,3.00
2019-06-26T22:45:32.626Z,3.33
2019-06-26T22:48:01.734Z,3.20
2019-06-26T22:50:30.898Z,3.83
2019-06-26T22:53:02.497Z,4.03
2019-06-26T22:55:31.628Z,3.60
2019-06-26T22:58:00.859Z,3.40
2019-06-26T23:00:30.087Z,3.30
2019-06-26T23:02:59.243Z,3.40
2019-06-26T23:05:28.535Z,3.77
2019-06-26T23:07:57.636Z,3.07
2019-06-26T23:10:26.802Z,3.77
2019-06-26T23:12:55.903Z,4.10
2019-06-26T23:15:25.750Z,3.40
2019-06-26T23:17:56.377Z,3.87
2019-06-26T23:20:26.121Z,3.50
2019-06-26T23:22:55.326Z,3.60
2019-06-26T23:25:24.501Z,4.07
2019-06-26T23:27:53.731Z,4.30
2019-06-26T23:30:22.877Z,4.20
2019-06-26T23:32:52.018Z,3.50
2019-06-26T23:35:22.512Z,3.47
2019-06-26T23:37:51.781Z,3.70
2019-06-26T23:40:21.032Z,3.73
2019-06-26T23:42:50.204Z,3.67
2019-06-26T23:45:19.345Z,3.80
2019-06-26T23:47:48.459Z,3.67
2019-06-26T23:50:17.823Z,3.60
2019-06-26T23:52:48.301Z,3.60
2019-06-26T23:55:17.433Z,3.40
2019-06-26T23:57:58.578Z,3.20
